Norfolk, NE

7:54 AM CST on November 23, 2014 (GMT -0600)
West Central - Norfolk | Change Station
CLOSE
Current Station
Personal Weather Station
Location: Norfolk, NE
Elevation: 1640 ft
Nearby Weather Stations

Elev 1640 ft 42.04 °N, 97.45 °W | Updated 7 seconds ago

Overcast
Overcast
44.3 °F
Feels Like 40 °F
N
7.5
Wind Variable Wind from North
Gusts 11.5 mph

Today
High -- | Low -- °F
--% Chance of Precip.
Yesterday
High -- | Low -- °F
Precip. -- in
7:29 AM 5:02 PM
New Moon, 1% visible
Pressure 29.49 in
Visibility 10.0 miles
Clouds Few 11000 ft
Windchill 40 °F
Dew Point 38 °F
Humidity 80%
Rainfall 0.00 in
Snow Depth Not available.
UV 0 out of 12
Pollen .10 out of 12
Air Quality Not available.
Flu Activity Not available.
METAR KOFK 231256Z AUTO 31016G24KT 10SM FEW110 08/03 A2947 RMK AO2 SLP984 T00780033

More Conditions Fewer Conditions

Pressure 29.49 in
Visibility 10.0 miles
Clouds Few 11000 ft
Windchill 40 °F
Dew Point 38 °F
Humidity 80%
Rainfall 0.00 in
Snow Depth Not available.
UV 0 out of 12
Pollen .10 out of 12
Air Quality Not available.
Flu Activity Not available.
METAR KOFK 231256Z AUTO 31016G24KT 10SM FEW110 08/03 A2947 RMK AO2 SLP984 T00780033

More Conditions Fewer Conditions

10-Day Weather Forecast

Almanac

Astronomy

Nov. 23, 2014 Rise Set
Actual Time
Civil Twilight
Nautical Twilight
Astronomical Twilight
Moon
Length of Visible Light
Length of Day
Tomorrow will be .
, % of the Moon is Illuminated

Today's Extremes

State Highs State Lows

Community

WunderPhotos

Upload Photos

1,773,062 photos uploaded!

WunderBlogs® & News

Nearby

Air Quality

  Air Quality AQ Index Pollutant
Not available.

Snow Depth

Station Depth Elevation

Earthquake Activity

City Distance Mag. Time & Date
Minimum magnitude displayed is 2.5.

Coastal Water Temperatures

Place Temperature

Nearby Weather Stations